createdAt,value
2024-01-25T00:00:37.248Z,8.38
2024-01-25T00:01:37.212Z,8.38
2024-01-25T00:02:37.105Z,8.38
2024-01-25T00:03:37.213Z,8.37
2024-01-25T00:04:37.128Z,8.37
2024-01-25T00:05:37.186Z,8.37
2024-01-25T00:06:37.235Z,8.41
2024-01-25T00:07:37.100Z,8.38
2024-01-25T00:08:37.014Z,8.38
2024-01-25T00:09:37.047Z,8.37
2024-01-25T00:10:36.999Z,8.37
2024-01-25T00:11:36.995Z,8.36
2024-01-25T00:12:37.109Z,8.36
2024-01-25T00:13:36.966Z,8.34
2024-01-25T00:14:37.111Z,8.34
2024-01-25T00:15:37.000Z,8.34
2024-01-25T00:16:36.952Z,8.34
2024-01-25T00:17:36.967Z,8.33
2024-01-25T00:18:37.005Z,8.31
2024-01-25T00:19:37.028Z,8.30
2024-01-25T00:20:36.931Z,8.28
2024-01-25T00:21:36.921Z,8.30
2024-01-25T00:22:36.879Z,8.30
2024-01-25T00:23:36.874Z,8.27
2024-01-25T00:24:36.943Z,8.28
2024-01-25T00:25:36.870Z,8.27
2024-01-25T00:26:36.873Z,8.27
2024-01-25T00:27:36.894Z,8.24
2024-01-25T00:28:36.841Z,8.24
2024-01-25T00:29:36.818Z,8.24
2024-01-25T00:30:36.877Z,8.20
2024-01-25T00:31:36.824Z,8.23
2024-01-25T00:32:36.846Z,8.23
2024-01-25T00:33:37.011Z,8.23
2024-01-25T00:34:36.869Z,8.23
2024-01-25T00:35:36.942Z,8.20
2024-01-25T00:36:36.771Z,8.18
2024-01-25T00:37:36.769Z,8.16
2024-01-25T00:38:36.783Z,8.18
2024-01-25T00:39:36.784Z,8.18
2024-01-25T00:40:36.711Z,8.18
2024-01-25T00:41:36.751Z,8.19
2024-01-25T00:42:36.707Z,8.19
2024-01-25T00:43:36.661Z,8.20
2024-01-25T00:44:36.677Z,8.23
2024-01-25T00:45:36.743Z,8.24
2024-01-25T00:46:36.635Z,8.24
2024-01-25T00:47:36.643Z,8.27
2024-01-25T00:48:36.742Z,8.24
2024-01-25T00:49:36.697Z,8.23
2024-01-25T00:50:36.686Z,8.20
2024-01-25T00:51:36.656Z,8.19
2024-01-25T00:52:36.569Z,8.19
2024-01-25T00:53:36.570Z,8.18
2024-01-25T00:54:36.640Z,8.18
2024-01-25T00:55:44.083Z,8.15
2024-01-25T00:56:36.537Z,8.15
2024-01-25T00:57:36.632Z,8.13
2024-01-25T00:58:36.536Z,8.15
2024-01-25T00:59:36.517Z,8.15
2024-01-25T01:00:36.578Z,8.16
2024-01-25T01:01:36.712Z,8.16
2024-01-25T01:02:36.573Z,8.16
2024-01-25T01:03:36.587Z,8.16
2024-01-25T01:04:46.959Z,8.19
2024-01-25T01:05:36.679Z,8.19
2024-01-25T01:06:36.527Z,8.20
2024-01-25T01:07:36.517Z,8.18
2024-01-25T01:08:36.469Z,8.18
2024-01-25T01:09:36.486Z,8.15
2024-01-25T01:10:36.522Z,8.15
2024-01-25T01:11:36.395Z,8.15
2024-01-25T01:12:36.451Z,8.16
2024-01-25T01:13:36.406Z,8.16
2024-01-25T01:14:36.446Z,8.18
2024-01-25T01:15:36.451Z,8.23
2024-01-25T01:16:36.336Z,8.23
2024-01-25T01:17:36.409Z,8.20
2024-01-25T01:18:36.542Z,8.18
2024-01-25T01:19:36.376Z,8.15
2024-01-25T01:20:36.338Z,8.18
2024-01-25T01:21:36.751Z,8.16
2024-01-25T01:22:36.266Z,8.18
2024-01-25T01:23:36.296Z,8.18
2024-01-25T01:24:36.312Z,8.19
2024-01-25T01:25:36.235Z,8.18
2024-01-25T01:26:36.281Z,8.20
2024-01-25T01:27:36.310Z,8.23
2024-01-25T01:28:36.221Z,8.20
2024-01-25T01:29:36.222Z,8.20
2024-01-25T01:30:36.285Z,8.20
2024-01-25T01:31:36.178Z,8.18
2024-01-25T01:32:36.409Z,8.16
2024-01-25T01:33:36.370Z,8.18
2024-01-25T01:34:36.349Z,8.16
2024-01-25T01:35:36.328Z,8.15
2024-01-25T01:36:36.212Z,8.13
2024-01-25T01:37:36.134Z,8.10
2024-01-25T01:38:36.128Z,8.09
2024-01-25T01:39:36.239Z,8.06
2024-01-25T01:40:36.090Z,8.03
2024-01-25T01:41:36.127Z,8.01
2024-01-25T01:42:36.098Z,8.01
2024-01-25T01:43:36.091Z,8.00
2024-01-25T01:44:36.046Z,7.95
2024-01-25T01:45:36.103Z,7.95
2024-01-25T01:46:36.076Z,7.95
2024-01-25T01:47:36.092Z,7.94
2024-01-25T01:48:36.290Z,7.93
2024-01-25T01:49:36.222Z,7.94
2024-01-25T01:50:36.251Z,7.91
2024-01-25T01:51:36.041Z,7.91
2024-01-25T01:52:36.042Z,7.90
2024-01-25T01:53:35.945Z,7.88
2024-01-25T01:54:36.014Z,7.87
2024-01-25T01:55:35.941Z,7.85
2024-01-25T01:56:35.958Z,7.85
2024-01-25T01:57:35.983Z,7.85
2024-01-25T01:58:35.914Z,7.83
2024-01-25T01:59:35.885Z,7.85
2024-01-25T02:00:35.933Z,7.82
2024-01-25T02:01:35.978Z,7.82
2024-01-25T02:02:35.857Z,7.79
2024-01-25T02:03:36.058Z,7.77
2024-01-25T02:04:36.038Z,7.76
2024-01-25T02:05:35.832Z,7.75
2024-01-25T02:06:35.980Z,7.73
2024-01-25T02:07:35.866Z,7.72
2024-01-25T02:08:35.802Z,7.69
2024-01-25T02:09:35.886Z,7.67
2024-01-25T02:10:35.825Z,7.63
2024-01-25T02:11:35.779Z,7.58
2024-01-25T02:12:35.904Z,7.57
2024-01-25T02:13:35.744Z,7.53
2024-01-25T02:14:35.757Z,7.50
2024-01-25T02:15:35.808Z,7.50
2024-01-25T02:16:35.805Z,7.50
2024-01-25T02:17:35.870Z,7.48
2024-01-25T02:18:35.887Z,7.47
2024-01-25T02:19:35.887Z,7.48
2024-01-25T02:20:35.731Z,7.47
2024-01-25T02:21:35.766Z,7.47
2024-01-25T02:22:35.667Z,7.48
2024-01-25T02:23:35.644Z,7.50
2024-01-25T02:24:35.721Z,7.50
2024-01-25T02:25:35.623Z,7.53
2024-01-25T02:26:35.609Z,7.54
2024-01-25T02:27:35.729Z,7.56
2024-01-25T02:28:35.574Z,7.58
2024-01-25T02:29:35.586Z,7.58
2024-01-25T02:30:35.580Z,7.57
2024-01-25T02:31:35.600Z,7.57
2024-01-25T02:32:35.588Z,7.56
2024-01-25T02:33:35.757Z,7.53
2024-01-25T02:34:35.686Z,7.51
2024-01-25T02:35:35.514Z,7.50
2024-01-25T02:36:35.524Z,7.48
2024-01-25T02:37:35.505Z,7.43
2024-01-25T02:38:35.497Z,7.43
2024-01-25T02:39:35.546Z,7.40
2024-01-25T02:40:35.484Z,7.36
2024-01-25T02:41:35.470Z,7.33
2024-01-25T02:42:35.461Z,7.31
2024-01-25T02:43:35.441Z,7.28
2024-01-25T02:44:35.419Z,7.28
2024-01-25T02:45:35.483Z,7.24
2024-01-25T02:46:35.545Z,7.24
2024-01-25T02:47:35.536Z,7.24
2024-01-25T02:48:35.508Z,7.21
2024-01-25T02:49:35.624Z,7.20
2024-01-25T02:50:35.364Z,7.18
2024-01-25T02:51:35.452Z,7.17
2024-01-25T02:52:35.334Z,7.18
2024-01-25T02:53:35.346Z,7.21
2024-01-25T02:54:35.332Z,7.21
2024-01-25T02:55:35.318Z,7.24
2024-01-25T02:56:35.298Z,7.29
2024-01-25T02:57:35.417Z,7.29
2024-01-25T02:58:35.279Z,7.32
2024-01-25T02:59:35.347Z,7.32
2024-01-25T03:00:35.389Z,7.35
2024-01-25T03:01:35.373Z,7.38
2024-01-25T03:02:35.282Z,7.39
2024-01-25T03:03:35.294Z,7.40
2024-01-25T03:04:35.295Z,7.40
2024-01-25T03:05:35.324Z,7.42
2024-01-25T03:06:35.377Z,7.42
2024-01-25T03:07:35.250Z,7.43
2024-01-25T03:08:35.211Z,7.45
2024-01-25T03:09:35.313Z,7.45
2024-01-25T03:10:35.244Z,7.47
2024-01-25T03:11:35.183Z,7.48
2024-01-25T03:12:35.179Z,7.50
2024-01-25T03:13:35.150Z,7.50
2024-01-25T03:14:35.204Z,7.47
2024-01-25T03:15:35.159Z,7.45
2024-01-25T03:16:35.188Z,7.45
2024-01-25T03:17:35.162Z,7.43
2024-01-25T03:18:35.163Z,7.43
2024-01-25T03:19:35.239Z,7.40
2024-01-25T03:20:35.072Z,7.39
2024-01-25T03:21:35.096Z,7.36
2024-01-25T03:22:35.043Z,7.38
2024-01-25T03:23:35.035Z,7.35
2024-01-25T03:24:35.061Z,7.35
2024-01-25T03:25:35.150Z,7.36
2024-01-25T03:26:35.009Z,7.36
2024-01-25T03:27:35.206Z,7.36
2024-01-25T03:28:35.017Z,7.39
2024-01-25T03:29:34.966Z,7.36
2024-01-25T03:30:35.002Z,7.38
2024-01-25T03:31:34.953Z,7.38
2024-01-25T03:32:34.972Z,7.40
2024-01-25T03:33:35.203Z,7.40
2024-01-25T03:34:35.005Z,7.39
2024-01-25T03:35:34.937Z,7.38
2024-01-25T03:36:34.930Z,7.38
2024-01-25T03:37:34.886Z,7.38
2024-01-25T03:38:34.890Z,7.42
2024-01-25T03:39:34.931Z,7.42
2024-01-25T03:40:34.937Z,7.43
2024-01-25T03:41:34.842Z,7.45
2024-01-25T03:42:34.995Z,7.47
2024-01-25T03:43:39.273Z,7.48
2024-01-25T03:44:34.832Z,7.48
2024-01-25T03:45:34.870Z,7.48
2024-01-25T03:46:34.833Z,7.50
2024-01-25T03:47:34.818Z,7.50
2024-01-25T03:48:34.817Z,7.50
2024-01-25T03:49:34.904Z,7.48
2024-01-25T03:50:34.950Z,7.45
2024-01-25T03:51:34.790Z,7.43
2024-01-25T03:52:34.759Z,7.42
2024-01-25T03:53:34.753Z,7.39
2024-01-25T03:54:34.732Z,7.39
2024-01-25T03:55:34.844Z,7.40
2024-01-25T03:56:34.723Z,7.40
2024-01-25T03:57:34.894Z,7.42
2024-01-25T03:58:34.814Z,7.39
2024-01-25T03:59:34.714Z,7.40
2024-01-25T04:00:34.794Z,7.36
2024-01-25T04:01:34.754Z,7.36
2024-01-25T04:02:34.636Z,7.32
2024-01-25T04:03:34.769Z,7.31
2024-01-25T04:04:34.792Z,7.32
2024-01-25T04:05:34.629Z,7.32
2024-01-25T04:06:34.762Z,7.31
2024-01-25T04:07:34.635Z,7.31
2024-01-25T04:08:34.573Z,7.29
2024-01-25T04:09:34.736Z,7.29
2024-01-25T04:10:34.696Z,7.28
2024-01-25T04:11:34.555Z,7.28
2024-01-25T04:12:34.658Z,7.28
2024-01-25T04:13:34.594Z,7.25
2024-01-25T04:14:34.559Z,7.24
2024-01-25T04:15:34.591Z,7.25
2024-01-25T04:16:34.606Z,7.24
2024-01-25T04:17:34.503Z,7.24
2024-01-25T04:18:34.657Z,7.25
2024-01-25T04:19:34.662Z,7.24
2024-01-25T04:20:34.619Z,7.24
2024-01-25T04:21:34.571Z,7.25
2024-01-25T04:22:34.495Z,7.24
2024-01-25T04:23:34.423Z,7.24
2024-01-25T04:24:34.480Z,7.21
2024-01-25T04:25:34.872Z,7.18
2024-01-25T04:26:34.379Z,7.18
2024-01-25T04:27:34.414Z,7.15
2024-01-25T04:28:34.414Z,7.14
2024-01-25T04:29:34.352Z,7.11
2024-01-25T04:30:34.484Z,7.10
2024-01-25T04:31:34.476Z,7.07
2024-01-25T04:32:34.510Z,7.06
2024-01-25T04:33:34.619Z,7.06
2024-01-25T04:34:34.489Z,7.05
2024-01-25T04:35:34.341Z,7.06
2024-01-25T04:36:34.301Z,7.05
2024-01-25T04:37:34.277Z,7.07
2024-01-25T04:38:34.256Z,7.07
2024-01-25T04:39:34.311Z,7.07
2024-01-25T04:40:34.366Z,7.10
2024-01-25T04:41:34.239Z,7.11
2024-01-25T04:42:34.313Z,7.13
2024-01-25T04:43:34.276Z,7.13
2024-01-25T04:44:34.202Z,7.13
2024-01-25T04:45:34.353Z,7.14
2024-01-25T04:46:34.426Z,7.14
2024-01-25T04:47:34.200Z,7.14
2024-01-25T04:48:34.466Z,7.14
2024-01-25T04:49:34.283Z,7.13
2024-01-25T04:50:34.301Z,7.13
2024-01-25T04:51:34.220Z,7.14
2024-01-25T04:52:34.113Z,7.14
2024-01-25T04:53:34.113Z,7.17
2024-01-25T04:54:34.149Z,7.17
2024-01-25T04:55:34.104Z,7.17
2024-01-25T04:56:34.091Z,7.18
2024-01-25T04:57:34.133Z,7.18
2024-01-25T04:58:34.054Z,7.20
2024-01-25T04:59:34.066Z,7.21
2024-01-25T05:00:34.073Z,7.20
2024-01-25T05:01:34.188Z,7.21
2024-01-25T05:02:34.035Z,7.21
2024-01-25T05:03:34.179Z,7.20
2024-01-25T05:04:34.159Z,7.18
2024-01-25T05:05:33.992Z,7.17
2024-01-25T05:06:34.078Z,7.17
2024-01-25T05:07:34.093Z,7.18
2024-01-25T05:08:34.087Z,7.20
2024-01-25T05:09:33.997Z,7.18
2024-01-25T05:10:34.007Z,7.17
2024-01-25T05:11:33.939Z,7.21
2024-01-25T05:12:33.955Z,7.20
2024-01-25T05:13:33.916Z,7.20
2024-01-25T05:14:34.093Z,7.20
2024-01-25T05:15:34.174Z,7.20
2024-01-25T05:16:33.938Z,7.21
2024-01-25T05:17:33.963Z,7.23
2024-01-25T05:18:34.087Z,7.21
2024-01-25T05:19:33.980Z,7.23
2024-01-25T05:20:34.404Z,7.24
2024-01-25T05:21:33.920Z,7.21
2024-01-25T05:22:33.811Z,7.21
2024-01-25T05:23:33.837Z,7.24
2024-01-25T05:24:33.804Z,7.24
2024-01-25T05:25:33.946Z,7.24
2024-01-25T05:26:33.776Z,7.25
2024-01-25T05:27:33.867Z,7.24
2024-01-25T05:28:33.839Z,7.24
2024-01-25T05:29:33.828Z,7.24
2024-01-25T05:30:33.811Z,7.24
2024-01-25T05:31:33.755Z,7.21
2024-01-25T05:32:33.751Z,7.23
2024-01-25T05:33:34.161Z,7.24
2024-01-25T05:34:33.948Z,7.21
2024-01-25T05:35:33.774Z,7.21
2024-01-25T05:36:33.775Z,7.20
2024-01-25T05:37:33.664Z,7.20
2024-01-25T05:38:33.648Z,7.18
2024-01-25T05:39:33.797Z,7.18
2024-01-25T05:40:33.681Z,7.17
2024-01-25T05:41:33.648Z,7.15
2024-01-25T05:42:33.711Z,7.18
2024-01-25T05:43:33.636Z,7.18
2024-01-25T05:44:33.593Z,7.21
2024-01-25T05:45:33.673Z,7.23
2024-01-25T05:46:33.623Z,7.23
2024-01-25T05:47:33.688Z,7.23
2024-01-25T05:48:33.717Z,7.24
2024-01-25T05:49:33.865Z,7.23
2024-01-25T05:50:33.624Z,7.23
2024-01-25T05:51:33.647Z,7.20
2024-01-25T05:52:33.590Z,7.17
2024-01-25T05:53:33.520Z,7.17
2024-01-25T05:54:33.517Z,7.17
2024-01-25T05:55:33.664Z,7.14
2024-01-25T05:56:33.461Z,7.13
2024-01-25T05:57:33.669Z,7.14
2024-01-25T05:58:33.480Z,7.13
2024-01-25T05:59:33.437Z,7.13
2024-01-25T06:00:33.560Z,7.13
2024-01-25T06:01:33.600Z,7.15
2024-01-25T06:02:33.506Z,7.13
2024-01-25T06:03:33.553Z,7.15
2024-01-25T06:04:33.454Z,7.15
2024-01-25T06:05:33.800Z,7.14
2024-01-25T06:06:33.596Z,7.15
2024-01-25T06:07:33.573Z,7.15
2024-01-25T06:08:33.432Z,7.18
2024-01-25T06:09:33.590Z,7.17
2024-01-25T06:10:33.465Z,7.20
2024-01-25T06:11:33.323Z,7.20
2024-01-25T06:12:33.428Z,7.20
2024-01-25T06:13:33.512Z,7.23
2024-01-25T06:14:33.320Z,7.25
2024-01-25T06:15:33.316Z,7.25
2024-01-25T06:16:33.293Z,7.25
2024-01-25T06:17:33.338Z,7.25
2024-01-25T06:18:33.329Z,7.28
2024-01-25T06:19:33.608Z,7.29
2024-01-25T06:20:33.293Z,7.29
2024-01-25T06:21:33.302Z,7.25
2024-01-25T06:22:33.261Z,7.25
2024-01-25T06:23:33.268Z,7.28
2024-01-25T06:24:33.224Z,7.25
2024-01-25T06:25:33.372Z,7.25
2024-01-25T06:26:33.197Z,7.28
2024-01-25T06:27:33.270Z,7.25
2024-01-25T06:28:33.198Z,7.24
2024-01-25T06:29:33.125Z,7.24
2024-01-25T06:30:33.134Z,7.23
2024-01-25T06:31:33.197Z,7.24
2024-01-25T06:32:33.161Z,7.24
2024-01-25T06:33:33.303Z,7.23
2024-01-25T06:34:33.232Z,7.23
2024-01-25T06:35:33.216Z,7.21
2024-01-25T06:36:33.115Z,7.18
2024-01-25T06:37:33.216Z,7.17
2024-01-25T06:38:33.080Z,7.18
2024-01-25T06:39:33.125Z,7.14
2024-01-25T06:40:33.091Z,7.14
2024-01-25T06:41:32.995Z,7.14
2024-01-25T06:42:33.066Z,7.15
2024-01-25T06:43:33.098Z,7.17
2024-01-25T06:44:32.975Z,7.15
2024-01-25T06:45:33.067Z,7.13
2024-01-25T06:46:32.998Z,7.10
2024-01-25T06:47:33.027Z,7.10
2024-01-25T06:48:33.177Z,7.07
2024-01-25T06:49:33.227Z,7.06
2024-01-25T06:50:33.132Z,7.05
2024-01-25T06:51:32.986Z,7.05
2024-01-25T06:52:33.003Z,7.05
2024-01-25T06:53:32.891Z,7.06
2024-01-25T06:54:32.931Z,7.02
2024-01-25T06:55:32.895Z,7.03
2024-01-25T06:56:32.854Z,7.05
2024-01-25T06:57:32.930Z,7.05
2024-01-25T06:58:32.881Z,7.03
2024-01-25T06:59:32.825Z,7.02
2024-01-25T07:00:32.822Z,7.02
2024-01-25T07:01:32.857Z,7.03
2024-01-25T07:02:32.886Z,7.03
2024-01-25T07:03:32.935Z,7.03
2024-01-25T07:04:33.014Z,7.02
2024-01-25T07:05:32.750Z,7.03
2024-01-25T07:06:32.868Z,7.03
2024-01-25T07:07:32.768Z,7.03
2024-01-25T07:08:32.736Z,7.05
2024-01-25T07:09:32.795Z,7.05
2024-01-25T07:10:32.729Z,7.03
2024-01-25T07:11:32.682Z,7.06
2024-01-25T07:12:32.742Z,7.07
2024-01-25T07:13:32.719Z,7.10
2024-01-25T07:14:32.676Z,7.10
2024-01-25T07:15:32.725Z,7.11
2024-01-25T07:16:32.771Z,7.11
2024-01-25T07:17:32.705Z,7.13
2024-01-25T07:18:32.745Z,7.11
2024-01-25T07:19:32.712Z,7.07
2024-01-25T07:20:32.963Z,7.06
2024-01-25T07:21:32.641Z,7.06
2024-01-25T07:22:32.623Z,7.05
2024-01-25T07:23:32.573Z,7.03
2024-01-25T07:24:32.575Z,6.99
2024-01-25T07:25:32.603Z,6.99
2024-01-25T07:26:32.538Z,6.97
2024-01-25T07:27:32.594Z,6.99
2024-01-25T07:28:32.562Z,6.96
2024-01-25T07:29:32.534Z,6.96
2024-01-25T07:30:32.600Z,6.96
2024-01-25T07:31:32.555Z,6.96
2024-01-25T07:32:32.613Z,6.96
2024-01-25T07:33:32.638Z,6.97
2024-01-25T07:34:32.568Z,6.99
2024-01-25T07:35:32.497Z,6.99
2024-01-25T07:36:32.480Z,7.00
2024-01-25T07:37:32.465Z,7.02
2024-01-25T07:38:32.421Z,7.02
2024-01-25T07:39:32.491Z,7.00
2024-01-25T07:40:32.452Z,6.99
2024-01-25T07:41:32.385Z,7.00
2024-01-25T07:42:32.456Z,6.97
2024-01-25T07:43:32.485Z,7.00
2024-01-25T07:44:32.390Z,6.96
2024-01-25T07:45:32.405Z,6.99
2024-01-25T07:46:32.404Z,6.97
2024-01-25T07:47:32.374Z,6.96
2024-01-25T07:48:32.465Z,6.97
2024-01-25T07:49:32.414Z,6.97
2024-01-25T07:50:32.494Z,6.99
2024-01-25T07:51:32.370Z,6.96
2024-01-25T07:52:32.334Z,6.97
2024-01-25T07:53:32.270Z,6.97
2024-01-25T07:54:32.304Z,6.96
2024-01-25T07:55:32.344Z,6.97
2024-01-25T07:56:32.254Z,6.99
2024-01-25T07:57:32.367Z,6.97
2024-01-25T07:58:32.329Z,7.00
2024-01-25T07:59:32.201Z,7.02
2024-01-25T08:00:32.641Z,7.03
2024-01-25T08:01:32.391Z,7.05
2024-01-25T08:02:32.347Z,7.07
2024-01-25T08:03:32.353Z,7.10
2024-01-25T08:04:32.463Z,7.13
2024-01-25T08:05:40.609Z,7.13
2024-01-25T08:06:32.439Z,7.15
2024-01-25T08:07:32.330Z,7.17
2024-01-25T08:08:32.519Z,7.18
2024-01-25T08:09:32.203Z,7.18
2024-01-25T08:10:32.315Z,7.21
2024-01-25T08:11:32.075Z,7.20
2024-01-25T08:12:32.113Z,7.20
2024-01-25T08:13:35.486Z,7.20
2024-01-25T08:14:32.297Z,7.21
2024-01-25T08:15:32.224Z,7.23
2024-01-25T08:16:32.143Z,7.23
2024-01-25T08:17:32.743Z,7.23
2024-01-25T08:18:32.533Z,7.25
2024-01-25T08:19:32.679Z,7.25
2024-01-25T08:20:32.123Z,7.25
2024-01-25T08:21:32.177Z,7.28
2024-01-25T08:22:31.994Z,7.32
2024-01-25T08:23:32.357Z,7.35
2024-01-25T08:24:32.164Z,7.32
2024-01-25T08:25:32.030Z,7.33
2024-01-25T08:26:31.924Z,7.35
2024-01-25T08:27:32.015Z,7.35
2024-01-25T08:28:32.025Z,7.36
2024-01-25T08:29:31.893Z,7.38
2024-01-25T08:30:31.999Z,7.38
2024-01-25T08:31:31.996Z,7.39
2024-01-25T08:32:31.964Z,7.42
2024-01-25T08:33:32.736Z,7.42
2024-01-25T08:34:31.987Z,7.45
2024-01-25T08:35:32.027Z,7.47
2024-01-25T08:36:31.896Z,7.47
2024-01-25T08:37:31.857Z,7.50
2024-01-25T08:38:31.849Z,7.48
2024-01-25T08:39:32.063Z,7.48
2024-01-25T08:40:31.865Z,7.48
2024-01-25T08:41:33.221Z,7.48
2024-01-25T08:42:31.847Z,7.47
2024-01-25T08:43:31.911Z,7.43
2024-01-25T08:44:31.754Z,7.42
2024-01-25T08:45:31.894Z,7.42
2024-01-25T08:46:31.809Z,7.42
2024-01-25T08:47:31.757Z,7.43
2024-01-25T08:48:32.101Z,7.45
2024-01-25T08:49:31.867Z,7.42
2024-01-25T08:50:31.784Z,7.42
2024-01-25T08:51:32.066Z,7.45
2024-01-25T08:52:31.796Z,7.47
2024-01-25T08:53:31.672Z,7.47
2024-01-25T08:54:31.853Z,7.47
2024-01-25T08:55:32.100Z,7.48
2024-01-25T08:56:31.648Z,7.50
2024-01-25T08:57:31.812Z,7.48
2024-01-25T08:58:31.612Z,7.50
2024-01-25T08:59:31.640Z,7.50
2024-01-25T09:00:31.842Z,7.51
2024-01-25T09:01:31.689Z,7.54
2024-01-25T09:02:31.911Z,7.57
2024-01-25T09:03:31.622Z,7.54
2024-01-25T09:04:31.780Z,7.54
2024-01-25T09:05:31.699Z,7.54
2024-01-25T09:06:31.885Z,7.54
2024-01-25T09:07:31.579Z,7.54
2024-01-25T09:08:32.749Z,7.60
2024-01-25T09:09:31.713Z,7.69
2024-01-25T09:10:31.844Z,7.66
2024-01-25T09:11:31.510Z,7.63
2024-01-25T09:12:31.473Z,7.63
2024-01-25T09:13:31.587Z,7.60
2024-01-25T09:14:31.486Z,7.58
2024-01-25T09:15:31.578Z,7.57
2024-01-25T09:16:31.532Z,7.57
2024-01-25T09:17:31.570Z,7.56
2024-01-25T09:18:31.553Z,7.56
2024-01-25T09:19:31.656Z,7.57
2024-01-25T09:20:31.973Z,7.58
2024-01-25T09:21:31.393Z,7.69
2024-01-25T09:22:31.425Z,7.69
2024-01-25T09:23:31.740Z,7.77
2024-01-25T09:24:31.353Z,7.76
2024-01-25T09:25:31.484Z,7.85
2024-01-25T09:26:31.340Z,7.97
2024-01-25T09:27:31.825Z,8.01
2024-01-25T09:28:31.515Z,8.13
2024-01-25T09:29:31.281Z,8.10
2024-01-25T09:30:31.296Z,8.03
2024-01-25T09:31:31.419Z,8.12
2024-01-25T09:32:31.305Z,8.19
2024-01-25T09:33:31.568Z,8.26
2024-01-25T09:34:31.310Z,8.37
2024-01-25T09:35:31.486Z,8.31
2024-01-25T09:36:31.237Z,8.41
2024-01-25T09:37:31.303Z,8.51
2024-01-25T09:38:31.189Z,8.55
2024-01-25T09:39:31.322Z,8.63
2024-01-25T09:40:31.242Z,8.70
2024-01-25T09:41:31.293Z,8.74
2024-01-25T09:42:31.158Z,8.79
2024-01-25T09:43:31.152Z,8.84
2024-01-25T09:44:31.291Z,8.88
2024-01-25T09:45:31.129Z,8.89
2024-01-25T09:46:31.308Z,8.88
2024-01-25T09:47:31.110Z,8.89
2024-01-25T09:48:31.231Z,8.87
2024-01-25T09:49:31.280Z,8.79
2024-01-25T09:50:31.133Z,8.84
2024-01-25T09:51:31.366Z,8.85
2024-01-25T09:52:31.139Z,8.71
2024-01-25T09:53:31.024Z,8.73
2024-01-25T09:54:32.376Z,8.71
2024-01-25T09:55:31.217Z,8.61
2024-01-25T09:56:31.024Z,8.56
2024-01-25T09:57:31.014Z,8.53
2024-01-25T09:58:31.097Z,8.55
2024-01-25T09:59:30.974Z,8.53
2024-01-25T10:00:33.229Z,8.51
2024-01-25T10:01:31.021Z,8.48
2024-01-25T10:02:31.056Z,8.48
2024-01-25T10:03:30.950Z,8.52
2024-01-25T10:04:31.049Z,8.56
2024-01-25T10:05:31.045Z,8.61
2024-01-25T10:06:30.989Z,8.64
2024-01-25T10:07:30.939Z,8.70
2024-01-25T10:08:30.893Z,8.71
2024-01-25T10:09:30.904Z,8.76
2024-01-25T10:10:30.913Z,8.79
2024-01-25T10:11:32.601Z,8.79
2024-01-25T10:12:30.842Z,8.82
2024-01-25T10:13:30.893Z,8.78
2024-01-25T10:14:30.820Z,8.76
2024-01-25T10:15:30.842Z,8.74
2024-01-25T10:16:30.932Z,8.76
2024-01-25T10:17:51.832Z,8.76
2024-01-25T10:18:31.469Z,8.73
2024-01-25T10:19:31.063Z,8.70
2024-01-25T10:20:32.114Z,8.70
2024-01-25T10:21:30.887Z,8.66
2024-01-25T10:22:30.855Z,8.64
2024-01-25T10:23:30.772Z,8.61
2024-01-25T10:24:30.782Z,8.60
2024-01-25T10:25:30.792Z,8.63
2024-01-25T10:26:30.688Z,8.67
2024-01-25T10:27:30.715Z,8.66
2024-01-25T10:28:30.812Z,8.67
2024-01-25T10:29:30.688Z,8.69
2024-01-25T10:30:30.719Z,8.70
2024-01-25T10:31:31.098Z,8.66
2024-01-25T10:32:30.664Z,8.66
2024-01-25T10:33:30.820Z,8.61
2024-01-25T10:34:30.733Z,8.56
2024-01-25T10:35:30.868Z,8.55
2024-01-25T10:36:30.631Z,8.52
2024-01-25T10:37:30.722Z,8.52
2024-01-25T10:38:30.569Z,8.51
2024-01-25T10:39:30.609Z,8.52
2024-01-25T10:40:30.765Z,8.52
2024-01-25T10:41:30.555Z,8.51
2024-01-25T10:42:30.653Z,8.51
2024-01-25T10:43:30.715Z,8.52
2024-01-25T10:44:30.502Z,8.52
2024-01-25T10:45:30.514Z,8.51
2024-01-25T10:46:30.547Z,8.51
2024-01-25T10:47:30.545Z,8.52
2024-01-25T10:48:30.506Z,8.53
2024-01-25T10:49:30.588Z,8.55
2024-01-25T10:50:30.601Z,8.52
2024-01-25T10:51:30.452Z,8.55
2024-01-25T10:52:30.581Z,8.56
2024-01-25T10:53:30.481Z,8.58
2024-01-25T10:54:30.387Z,8.58
2024-01-25T10:55:30.590Z,8.56
2024-01-25T10:56:30.400Z,8.56
2024-01-25T10:57:30.399Z,8.55
2024-01-25T10:58:31.764Z,8.53
2024-01-25T10:59:30.433Z,8.55
2024-01-25T11:00:30.341Z,8.55
2024-01-25T11:01:30.405Z,8.58
2024-01-25T11:02:30.564Z,8.58
2024-01-25T11:03:30.398Z,8.60
2024-01-25T11:04:30.394Z,8.63
2024-01-25T11:05:30.500Z,8.70
2024-01-25T11:06:31.480Z,8.73
2024-01-25T11:07:30.295Z,8.76
2024-01-25T11:08:30.281Z,8.79
2024-01-25T11:09:30.280Z,8.82
2024-01-25T11:10:30.327Z,8.82
2024-01-25T11:11:30.307Z,8.84
2024-01-25T11:12:31.124Z,8.84
2024-01-25T11:13:30.312Z,8.87
2024-01-25T11:14:30.196Z,8.88
2024-01-25T11:15:30.217Z,8.97
2024-01-25T11:16:30.770Z,8.94
2024-01-25T11:17:30.249Z,8.94
2024-01-25T11:18:30.987Z,9.06
2024-01-25T11:19:30.253Z,9.14
2024-01-25T11:20:30.502Z,9.26
2024-01-25T11:21:30.201Z,9.29
2024-01-25T11:22:30.149Z,9.31
2024-01-25T11:23:30.129Z,9.39
2024-01-25T11:24:30.137Z,9.40
2024-01-25T11:25:30.180Z,9.40
2024-01-25T11:26:30.160Z,9.31
2024-01-25T11:27:30.167Z,9.23
2024-01-25T11:28:30.117Z,9.22
2024-01-25T11:29:30.089Z,9.22
2024-01-25T11:30:30.091Z,9.19
2024-01-25T11:31:30.609Z,9.19
2024-01-25T11:32:30.105Z,9.16
2024-01-25T11:33:30.185Z,9.13
2024-01-25T11:34:30.118Z,9.06
2024-01-25T11:35:30.235Z,9.08
2024-01-25T11:36:30.088Z,9.11
2024-01-25T11:37:30.293Z,9.14
2024-01-25T11:38:29.990Z,9.19
2024-01-25T11:39:30.074Z,9.28
2024-01-25T11:40:29.977Z,9.37
2024-01-25T11:41:29.968Z,9.44
2024-01-25T11:42:29.947Z,9.55
2024-01-25T11:43:29.943Z,9.61
2024-01-25T11:44:29.930Z,9.55
2024-01-25T11:45:30.062Z,9.55
2024-01-25T11:46:29.917Z,9.55
2024-01-25T11:47:29.918Z,9.55
2024-01-25T11:48:29.997Z,9.56
2024-01-25T11:49:30.012Z,9.55
2024-01-25T11:50:30.036Z,9.51
2024-01-25T11:51:29.884Z,9.47
2024-01-25T11:52:31.510Z,9.40
2024-01-25T11:53:29.882Z,9.32
2024-01-25T11:54:29.823Z,9.23
2024-01-25T11:55:29.857Z,9.22
2024-01-25T11:56:29.797Z,9.19
2024-01-25T11:57:29.776Z,9.16
2024-01-25T11:58:33.050Z,9.14
2024-01-25T11:59:29.752Z,9.14
2024-01-25T12:00:29.802Z,9.13
2024-01-25T12:01:29.920Z,9.11
2024-01-25T12:02:30.021Z,9.08
2024-01-25T12:03:29.802Z,9.13
2024-01-25T12:04:29.792Z,9.18
2024-01-25T12:05:29.891Z,9.18
2024-01-25T12:06:29.754Z,9.16
2024-01-25T12:07:29.796Z,9.14
2024-01-25T12:08:29.657Z,9.08
2024-01-25T12:09:29.690Z,9.04
2024-01-25T12:10:29.660Z,8.99
2024-01-25T12:11:29.673Z,8.95
2024-01-25T12:12:29.613Z,8.94
2024-01-25T12:13:29.601Z,8.94
2024-01-25T12:14:29.691Z,8.92
2024-01-25T12:15:29.693Z,8.94
2024-01-25T12:16:29.701Z,8.95
2024-01-25T12:17:29.663Z,8.95
2024-01-25T12:18:29.663Z,8.95
2024-01-25T12:19:29.715Z,8.94
2024-01-25T12:20:29.621Z,8.97
2024-01-25T12:21:29.642Z,8.94
2024-01-25T12:22:29.707Z,8.95
2024-01-25T12:23:29.478Z,8.97
2024-01-25T12:24:29.470Z,8.97
2024-01-25T12:25:29.483Z,8.97
2024-01-25T12:26:29.461Z,8.97
2024-01-25T12:27:29.506Z,8.95
2024-01-25T12:28:29.629Z,8.99
2024-01-25T12:29:29.423Z,8.95
2024-01-25T12:30:29.440Z,8.95
2024-01-25T12:31:29.505Z,8.92
2024-01-25T12:32:29.439Z,8.92
2024-01-25T12:33:29.596Z,8.91
2024-01-25T12:34:29.736Z,8.94
2024-01-25T12:35:29.510Z,8.95
2024-01-25T12:36:29.373Z,8.97
2024-01-25T12:37:29.426Z,8.97
2024-01-25T12:38:29.447Z,9.00
2024-01-25T12:39:29.452Z,8.99
2024-01-25T12:40:29.448Z,8.97
2024-01-25T12:41:29.422Z,8.94
2024-01-25T12:42:29.372Z,8.91
2024-01-25T12:43:29.381Z,8.89
2024-01-25T12:44:29.288Z,8.87
2024-01-25T12:45:29.453Z,8.84
2024-01-25T12:47:29.433Z,8.73
2024-01-25T12:48:29.309Z,8.71
2024-01-25T12:49:29.222Z,8.70
2024-01-25T12:50:29.207Z,8.70
2024-01-25T12:51:29.302Z,8.69
2024-01-25T12:52:29.210Z,8.70
2024-01-25T12:53:29.184Z,8.67
2024-01-25T12:54:29.231Z,8.71
2024-01-25T12:55:35.739Z,8.69
2024-01-25T12:56:29.156Z,8.70
2024-01-25T12:57:29.347Z,8.70
2024-01-25T12:58:29.132Z,8.70
2024-01-25T12:59:29.106Z,8.71
2024-01-25T13:00:29.174Z,8.71
2024-01-25T13:01:29.142Z,8.71
2024-01-25T13:02:29.097Z,8.69
2024-01-25T13:03:29.109Z,8.64
2024-01-25T13:04:29.296Z,8.61
2024-01-25T13:05:29.120Z,8.60
2024-01-25T13:06:29.063Z,8.60
2024-01-25T13:07:29.052Z,8.58
2024-01-25T13:08:29.049Z,8.56
2024-01-25T13:09:29.074Z,8.55
2024-01-25T13:10:29.027Z,8.56
2024-01-25T13:11:29.016Z,8.58
2024-01-25T13:12:29.082Z,8.55
2024-01-25T13:13:28.979Z,8.56
2024-01-25T13:14:28.993Z,8.52
2024-01-25T13:15:29.089Z,8.53
2024-01-25T13:16:28.951Z,8.52
2024-01-25T13:17:29.022Z,8.51
2024-01-25T13:18:29.030Z,8.48
2024-01-25T13:19:29.094Z,8.48